sensor_id;sensor_type;location;lat;lon;timestamp;P1;durP1;ratioP1;P2;durP2;ratioP2
38611;SDS011;24368;52.156;20.788;2023-08-01T00:04:38;3.10;;;2.40;;
38611;SDS011;24368;52.156;20.788;2023-08-01T00:09:39;3.30;;;2.50;;
38611;SDS011;24368;52.156;20.788;2023-08-01T00:14:40;3.10;;;2.80;;
38611;SDS011;24368;52.156;20.788;2023-08-01T00:19:41;4.00;;;2.70;;
38611;SDS011;24368;52.156;20.788;2023-08-01T00:24:42;2.70;;;2.10;;
38611;SDS011;24368;52.156;20.788;2023-08-01T00:29:43;3.40;;;2.40;;
38611;SDS011;24368;52.156;20.788;2023-08-01T00:34:45;3.10;;;2.80;;
38611;SDS011;24368;52.156;20.788;2023-08-01T00:39:46;3.50;;;2.50;;
38611;SDS011;24368;52.156;20.788;2023-08-01T00:44:47;3.10;;;2.40;;
38611;SDS011;24368;52.156;20.788;2023-08-01T00:49:49;2.80;;;2.50;;
38611;SDS011;24368;52.156;20.788;2023-08-01T00:54:51;3.00;;;2.60;;
38611;SDS011;24368;52.156;20.788;2023-08-01T00:59:52;3.70;;;2.90;;
38611;SDS011;24368;52.156;20.788;2023-08-01T01:04:54;3.10;;;2.60;;
38611;SDS011;24368;52.156;20.788;2023-08-01T01:09:55;2.70;;;2.50;;
38611;SDS011;24368;52.156;20.788;2023-08-01T01:14:56;3.40;;;2.70;;
38611;SDS011;24368;52.156;20.788;2023-08-01T01:19:57;2.90;;;2.60;;
38611;SDS011;24368;52.156;20.788;2023-08-01T01:24:59;4.80;;;2.60;;
38611;SDS011;24368;52.156;20.788;2023-08-01T01:30:18;2.90;;;2.30;;
38611;SDS011;24368;52.156;20.788;2023-08-01T01:35:20;3.50;;;2.40;;
38611;SDS011;24368;52.156;20.788;2023-08-01T01:40:22;2.80;;;2.50;;
38611;SDS011;24368;52.156;20.788;2023-08-01T01:45:23;3.40;;;2.90;;
38611;SDS011;24368;52.156;20.788;2023-08-01T01:50:24;2.50;;;2.20;;
38611;SDS011;24368;52.156;20.788;2023-08-01T01:55:25;2.60;;;2.40;;
38611;SDS011;24368;52.156;20.788;2023-08-01T02:00:26;3.20;;;2.30;;
38611;SDS011;24368;52.156;20.788;2023-08-01T02:05:27;3.30;;;2.30;;
38611;SDS011;24368;52.156;20.788;2023-08-01T02:10:28;2.40;;;2.20;;
38611;SDS011;24368;52.156;20.788;2023-08-01T02:15:29;3.00;;;2.80;;
38611;SDS011;24368;52.156;20.788;2023-08-01T02:20:30;3.20;;;2.50;;
38611;SDS011;24368;52.156;20.788;2023-08-01T02:25:32;2.50;;;2.30;;
38611;SDS011;24368;52.156;20.788;2023-08-01T02:30:36;3.80;;;2.60;;
38611;SDS011;24368;52.156;20.788;2023-08-01T02:35:37;2.80;;;2.50;;
38611;SDS011;24368;52.156;20.788;2023-08-01T02:40:38;2.50;;;2.30;;
38611;SDS011;24368;52.156;20.788;2023-08-01T02:45:41;4.50;;;2.50;;
38611;SDS011;24368;52.156;20.788;2023-08-01T02:50:42;4.20;;;2.70;;
38611;SDS011;24368;52.156;20.788;2023-08-01T02:55:44;2.30;;;2.00;;
38611;SDS011;24368;52.156;20.788;2023-08-01T03:00:47;2.50;;;2.30;;
38611;SDS011;24368;52.156;20.788;2023-08-01T03:05:48;3.70;;;2.60;;
38611;SDS011;24368;52.156;20.788;2023-08-01T03:10:49;3.00;;;2.70;;
38611;SDS011;24368;52.156;20.788;2023-08-01T03:15:50;3.50;;;2.50;;
38611;SDS011;24368;52.156;20.788;2023-08-01T03:20:51;3.50;;;2.40;;
38611;SDS011;24368;52.156;20.788;2023-08-01T03:25:52;2.50;;;2.10;;
38611;SDS011;24368;52.156;20.788;2023-08-01T03:30:53;2.80;;;2.50;;
38611;SDS011;24368;52.156;20.788;2023-08-01T03:35:54;3.30;;;3.00;;
38611;SDS011;24368;52.156;20.788;2023-08-01T03:40:56;4.30;;;2.80;;
38611;SDS011;24368;52.156;20.788;2023-08-01T03:45:57;2.80;;;2.50;;
38611;SDS011;24368;52.156;20.788;2023-08-01T03:50:58;3.10;;;2.80;;
38611;SDS011;24368;52.156;20.788;2023-08-01T03:55:59;3.10;;;2.60;;
38611;SDS011;24368;52.156;20.788;2023-08-01T04:01:00;2.70;;;2.50;;
38611;SDS011;24368;52.156;20.788;2023-08-01T04:06:01;2.60;;;2.40;;
38611;SDS011;24368;52.156;20.788;2023-08-01T04:11:02;4.10;;;3.10;;
38611;SDS011;24368;52.156;20.788;2023-08-01T04:16:04;5.00;;;2.50;;
38611;SDS011;24368;52.156;20.788;2023-08-01T04:21:05;3.60;;;3.10;;
38611;SDS011;24368;52.156;20.788;2023-08-01T04:26:08;2.90;;;2.70;;
38611;SDS011;24368;52.156;20.788;2023-08-01T04:31:09;2.70;;;2.50;;
38611;SDS011;24368;52.156;20.788;2023-08-01T04:36:10;5.30;;;2.50;;
38611;SDS011;24368;52.156;20.788;2023-08-01T04:41:11;2.60;;;2.40;;
38611;SDS011;24368;52.156;20.788;2023-08-01T04:46:13;7.10;;;3.20;;
38611;SDS011;24368;52.156;20.788;2023-08-01T04:51:14;4.10;;;2.70;;
38611;SDS011;24368;52.156;20.788;2023-08-01T04:56:15;3.20;;;2.50;;
38611;SDS011;24368;52.156;20.788;2023-08-01T05:01:16;3.50;;;2.70;;
38611;SDS011;24368;52.156;20.788;2023-08-01T05:06:17;2.50;;;2.00;;
38611;SDS011;24368;52.156;20.788;2023-08-01T05:11:18;2.40;;;1.90;;
38611;SDS011;24368;52.156;20.788;2023-08-01T05:16:19;2.20;;;2.00;;
38611;SDS011;24368;52.156;20.788;2023-08-01T05:21:20;4.80;;;2.20;;
38611;SDS011;24368;52.156;20.788;2023-08-01T05:26:21;5.30;;;1.90;;
38611;SDS011;24368;52.156;20.788;2023-08-01T05:31:22;3.60;;;1.80;;
38611;SDS011;24368;52.156;20.788;2023-08-01T05:36:23;4.00;;;1.80;;
38611;SDS011;24368;52.156;20.788;2023-08-01T05:41:25;4.00;;;2.20;;
38611;SDS011;24368;52.156;20.788;2023-08-01T05:46:26;2.00;;;1.60;;
38611;SDS011;24368;52.156;20.788;2023-08-01T05:51:27;3.90;;;2.80;;
38611;SDS011;24368;52.156;20.788;2023-08-01T05:56:28;2.50;;;2.10;;
38611;SDS011;24368;52.156;20.788;2023-08-01T06:01:30;3.10;;;2.40;;
38611;SDS011;24368;52.156;20.788;2023-08-01T06:06:31;4.30;;;2.00;;
38611;SDS011;24368;52.156;20.788;2023-08-01T06:11:32;5.20;;;2.10;;
38611;SDS011;24368;52.156;20.788;2023-08-01T06:16:34;2.80;;;1.90;;
38611;SDS011;24368;52.156;20.788;2023-08-01T06:21:35;4.00;;;2.20;;
38611;SDS011;24368;52.156;20.788;2023-08-01T06:26:36;3.20;;;2.10;;
38611;SDS011;24368;52.156;20.788;2023-08-01T06:31:37;2.40;;;2.00;;
38611;SDS011;24368;52.156;20.788;2023-08-01T06:36:38;3.00;;;1.90;;
38611;SDS011;24368;52.156;20.788;2023-08-01T06:41:40;2.90;;;2.10;;
38611;SDS011;24368;52.156;20.788;2023-08-01T06:46:41;4.50;;;2.00;;
38611;SDS011;24368;52.156;20.788;2023-08-01T06:51:42;3.30;;;2.50;;
38611;SDS011;24368;52.156;20.788;2023-08-01T06:56:43;2.50;;;2.30;;
38611;SDS011;24368;52.156;20.788;2023-08-01T07:01:50;3.20;;;2.10;;
38611;SDS011;24368;52.156;20.788;2023-08-01T07:06:51;3.90;;;2.30;;
38611;SDS011;24368;52.156;20.788;2023-08-01T07:11:53;3.60;;;2.20;;
38611;SDS011;24368;52.156;20.788;2023-08-01T07:16:54;4.60;;;2.50;;
38611;SDS011;24368;52.156;20.788;2023-08-01T07:21:57;3.40;;;1.70;;
38611;SDS011;24368;52.156;20.788;2023-08-01T07:26:58;2.10;;;1.90;;
38611;SDS011;24368;52.156;20.788;2023-08-01T07:31:59;3.70;;;2.20;;
38611;SDS011;24368;52.156;20.788;2023-08-01T07:37:00;3.20;;;2.10;;
38611;SDS011;24368;52.156;20.788;2023-08-01T07:42:01;2.50;;;2.20;;
38611;SDS011;24368;52.156;20.788;2023-08-01T07:47:02;2.60;;;1.80;;
38611;SDS011;24368;52.156;20.788;2023-08-01T07:52:04;2.40;;;2.20;;
38611;SDS011;24368;52.156;20.788;2023-08-01T07:57:06;3.10;;;1.90;;
38611;SDS011;24368;52.156;20.788;2023-08-01T08:02:07;3.90;;;2.10;;
38611;SDS011;24368;52.156;20.788;2023-08-01T08:07:08;2.20;;;1.90;;
38611;SDS011;24368;52.156;20.788;2023-08-01T08:12:09;3.90;;;2.30;;
38611;SDS011;24368;52.156;20.788;2023-08-01T08:17:10;2.90;;;2.60;;
38611;SDS011;24368;52.156;20.788;2023-08-01T08:22:11;3.70;;;2.10;;
38611;SDS011;24368;52.156;20.788;2023-08-01T08:27:12;3.50;;;2.10;;
38611;SDS011;24368;52.156;20.788;2023-08-01T08:32:14;3.80;;;2.60;;
38611;SDS011;24368;52.156;20.788;2023-08-01T08:37:15;4.80;;;2.30;;
38611;SDS011;24368;52.156;20.788;2023-08-01T08:42:17;2.40;;;2.20;;
38611;SDS011;24368;52.156;20.788;2023-08-01T08:47:19;5.10;;;2.10;;
38611;SDS011;24368;52.156;20.788;2023-08-01T08:52:26;1.90;;;1.80;;
38611;SDS011;24368;52.156;20.788;2023-08-01T08:57:28;2.70;;;2.50;;
38611;SDS011;24368;52.156;20.788;2023-08-01T09:02:31;5.00;;;2.20;;
38611;SDS011;24368;52.156;20.788;2023-08-01T09:07:33;4.20;;;2.50;;
38611;SDS011;24368;52.156;20.788;2023-08-01T09:12:40;3.90;;;2.50;;
38611;SDS011;24368;52.156;20.788;2023-08-01T09:17:48;4.50;;;3.00;;
38611;SDS011;24368;52.156;20.788;2023-08-01T09:27:57;2.90;;;2.60;;
38611;SDS011;24368;52.156;20.788;2023-08-01T09:32:58;3.20;;;2.50;;
38611;SDS011;24368;52.156;20.788;2023-08-01T09:37:59;3.00;;;2.70;;
38611;SDS011;24368;52.156;20.788;2023-08-01T09:43:01;3.20;;;2.50;;
38611;SDS011;24368;52.156;20.788;2023-08-01T09:48:02;2.90;;;2.60;;
38611;SDS011;24368;52.156;20.788;2023-08-01T09:53:07;3.80;;;2.80;;
38611;SDS011;24368;52.156;20.788;2023-08-01T09:58:09;3.90;;;2.30;;
38611;SDS011;24368;52.156;20.788;2023-08-01T10:03:13;4.50;;;2.90;;
38611;SDS011;24368;52.156;20.788;2023-08-01T10:08:15;3.90;;;3.10;;
38611;SDS011;24368;52.156;20.788;2023-08-01T10:13:17;2.90;;;2.60;;
38611;SDS011;24368;52.156;20.788;2023-08-01T10:18:19;3.80;;;3.10;;
38611;SDS011;24368;52.156;20.788;2023-08-01T10:23:21;2.90;;;2.60;;
38611;SDS011;24368;52.156;20.788;2023-08-01T10:28:33;4.90;;;2.80;;
38611;SDS011;24368;52.156;20.788;2023-08-01T10:33:36;2.80;;;2.60;;
38611;SDS011;24368;52.156;20.788;2023-08-01T10:38:52;3.10;;;2.60;;
38611;SDS011;24368;52.156;20.788;2023-08-01T10:44:12;4.10;;;3.30;;
38611;SDS011;24368;52.156;20.788;2023-08-01T10:49:15;3.80;;;2.50;;
38611;SDS011;24368;52.156;20.788;2023-08-01T10:54:24;4.20;;;2.70;;
38611;SDS011;24368;52.156;20.788;2023-08-01T10:59:26;4.80;;;2.90;;
38611;SDS011;24368;52.156;20.788;2023-08-01T11:04:27;3.40;;;3.00;;
38611;SDS011;24368;52.156;20.788;2023-08-01T11:09:28;3.50;;;2.50;;
38611;SDS011;24368;52.156;20.788;2023-08-01T11:14:30;3.70;;;3.00;;
38611;SDS011;24368;52.156;20.788;2023-08-01T11:19:31;4.00;;;3.10;;
38611;SDS011;24368;52.156;20.788;2023-08-01T11:24:32;7.00;;;2.80;;
38611;SDS011;24368;52.156;20.788;2023-08-01T11:29:37;3.70;;;2.70;;
38611;SDS011;24368;52.156;20.788;2023-08-01T11:34:41;3.70;;;3.00;;
38611;SDS011;24368;52.156;20.788;2023-08-01T11:39:46;4.40;;;3.10;;
38611;SDS011;24368;52.156;20.788;2023-08-01T11:44:48;3.60;;;2.60;;
38611;SDS011;24368;52.156;20.788;2023-08-01T11:49:50;6.30;;;2.90;;
38611;SDS011;24368;52.156;20.788;2023-08-01T11:54:51;4.80;;;2.90;;
38611;SDS011;24368;52.156;20.788;2023-08-01T11:59:53;2.80;;;2.60;;
38611;SDS011;24368;52.156;20.788;2023-08-01T12:04:56;2.90;;;2.50;;
38611;SDS011;24368;52.156;20.788;2023-08-01T12:09:57;4.10;;;2.50;;
38611;SDS011;24368;52.156;20.788;2023-08-01T12:15:00;3.40;;;2.80;;
38611;SDS011;24368;52.156;20.788;2023-08-01T12:20:01;3.30;;;2.80;;
38611;SDS011;24368;52.156;20.788;2023-08-01T12:25:03;3.00;;;2.60;;
38611;SDS011;24368;52.156;20.788;2023-08-01T12:30:04;2.90;;;2.60;;
38611;SDS011;24368;52.156;20.788;2023-08-01T12:35:06;3.30;;;3.00;;
38611;SDS011;24368;52.156;20.788;2023-08-01T12:40:08;3.20;;;2.60;;
38611;SDS011;24368;52.156;20.788;2023-08-01T12:45:09;3.90;;;2.80;;
38611;SDS011;24368;52.156;20.788;2023-08-01T12:50:10;4.20;;;2.90;;
38611;SDS011;24368;52.156;20.788;2023-08-01T12:55:12;2.60;;;2.40;;
38611;SDS011;24368;52.156;20.788;2023-08-01T13:00:13;3.60;;;2.80;;
38611;SDS011;24368;52.156;20.788;2023-08-01T13:05:15;4.40;;;3.00;;
38611;SDS011;24368;52.156;20.788;2023-08-01T13:10:16;3.40;;;2.40;;
38611;SDS011;24368;52.156;20.788;2023-08-01T13:15:17;3.10;;;2.60;;
38611;SDS011;24368;52.156;20.788;2023-08-01T13:20:18;3.70;;;3.30;;
38611;SDS011;24368;52.156;20.788;2023-08-01T13:25:20;4.20;;;3.10;;
38611;SDS011;24368;52.156;20.788;2023-08-01T13:30:21;4.60;;;2.70;;
38611;SDS011;24368;52.156;20.788;2023-08-01T13:35:22;2.80;;;2.60;;
38611;SDS011;24368;52.156;20.788;2023-08-01T13:40:24;3.30;;;3.00;;
38611;SDS011;24368;52.156;20.788;2023-08-01T13:45:29;3.30;;;3.00;;
38611;SDS011;24368;52.156;20.788;2023-08-01T13:50:31;2.80;;;2.60;;
38611;SDS011;24368;52.156;20.788;2023-08-01T13:55:32;3.90;;;3.30;;
38611;SDS011;24368;52.156;20.788;2023-08-01T14:00:34;2.70;;;2.50;;
38611;SDS011;24368;52.156;20.788;2023-08-01T14:05:35;3.50;;;3.20;;
38611;SDS011;24368;52.156;20.788;2023-08-01T14:10:36;4.60;;;3.30;;
38611;SDS011;24368;52.156;20.788;2023-08-01T14:15:37;3.50;;;3.00;;
38611;SDS011;24368;52.156;20.788;2023-08-01T14:20:38;4.00;;;3.00;;
38611;SDS011;24368;52.156;20.788;2023-08-01T14:25:39;3.30;;;3.00;;
38611;SDS011;24368;52.156;20.788;2023-08-01T14:30:40;3.90;;;3.20;;
38611;SDS011;24368;52.156;20.788;2023-08-01T14:35:41;4.30;;;3.30;;
38611;SDS011;24368;52.156;20.788;2023-08-01T14:40:43;4.20;;;3.50;;
38611;SDS011;24368;52.156;20.788;2023-08-01T14:45:44;4.20;;;3.50;;
38611;SDS011;24368;52.156;20.788;2023-08-01T14:50:45;4.20;;;3.80;;
38611;SDS011;24368;52.156;20.788;2023-08-01T14:55:46;4.80;;;3.40;;
38611;SDS011;24368;52.156;20.788;2023-08-01T15:00:57;5.40;;;4.10;;
38611;SDS011;24368;52.156;20.788;2023-08-01T15:06:04;3.40;;;3.10;;
38611;SDS011;24368;52.156;20.788;2023-08-01T15:11:08;3.90;;;3.60;;
38611;SDS011;24368;52.156;20.788;2023-08-01T15:16:10;5.10;;;4.10;;
38611;SDS011;24368;52.156;20.788;2023-08-01T15:21:12;3.80;;;3.40;;
38611;SDS011;24368;52.156;20.788;2023-08-01T15:26:13;4.20;;;3.40;;
38611;SDS011;24368;52.156;20.788;2023-08-01T15:31:14;4.00;;;3.70;;
38611;SDS011;24368;52.156;20.788;2023-08-01T15:36:15;4.00;;;3.60;;
38611;SDS011;24368;52.156;20.788;2023-08-01T15:41:17;4.90;;;4.10;;
38611;SDS011;24368;52.156;20.788;2023-08-01T15:46:18;3.90;;;3.30;;
38611;SDS011;24368;52.156;20.788;2023-08-01T15:51:19;6.20;;;3.50;;
38611;SDS011;24368;52.156;20.788;2023-08-01T15:56:21;4.20;;;3.20;;
38611;SDS011;24368;52.156;20.788;2023-08-01T16:01:22;3.90;;;3.20;;
38611;SDS011;24368;52.156;20.788;2023-08-01T16:06:23;4.90;;;3.80;;
38611;SDS011;24368;52.156;20.788;2023-08-01T16:11:24;4.20;;;3.50;;
38611;SDS011;24368;52.156;20.788;2023-08-01T16:16:25;3.80;;;3.30;;
38611;SDS011;24368;52.156;20.788;2023-08-01T16:21:27;3.60;;;3.30;;
38611;SDS011;24368;52.156;20.788;2023-08-01T16:26:28;4.70;;;3.50;;
38611;SDS011;24368;52.156;20.788;2023-08-01T16:31:29;3.80;;;3.50;;
38611;SDS011;24368;52.156;20.788;2023-08-01T16:36:30;3.70;;;3.40;;
38611;SDS011;24368;52.156;20.788;2023-08-01T16:41:31;3.70;;;3.40;;
38611;SDS011;24368;52.156;20.788;2023-08-01T16:46:32;5.30;;;3.10;;
38611;SDS011;24368;52.156;20.788;2023-08-01T16:51:33;4.30;;;3.90;;
38611;SDS011;24368;52.156;20.788;2023-08-01T16:56:35;3.70;;;2.60;;
38611;SDS011;24368;52.156;20.788;2023-08-01T17:01:36;3.30;;;3.00;;
38611;SDS011;24368;52.156;20.788;2023-08-01T17:06:37;3.30;;;3.00;;
38611;SDS011;24368;52.156;20.788;2023-08-01T17:11:39;3.40;;;3.00;;
38611;SDS011;24368;52.156;20.788;2023-08-01T17:16:40;3.20;;;2.90;;
38611;SDS011;24368;52.156;20.788;2023-08-01T17:21:42;3.40;;;2.90;;
38611;SDS011;24368;52.156;20.788;2023-08-01T17:26:44;4.00;;;3.20;;
38611;SDS011;24368;52.156;20.788;2023-08-01T17:31:45;3.20;;;2.90;;
38611;SDS011;24368;52.156;20.788;2023-08-01T17:36:46;3.40;;;3.10;;
38611;SDS011;24368;52.156;20.788;2023-08-01T17:41:47;3.20;;;2.80;;
38611;SDS011;24368;52.156;20.788;2023-08-01T17:46:50;3.40;;;3.00;;
38611;SDS011;24368;52.156;20.788;2023-08-01T17:51:51;3.80;;;3.50;;
38611;SDS011;24368;52.156;20.788;2023-08-01T17:56:52;4.00;;;3.10;;
38611;SDS011;24368;52.156;20.788;2023-08-01T18:01:55;3.90;;;3.00;;
38611;SDS011;24368;52.156;20.788;2023-08-01T18:06:56;3.30;;;2.60;;
38611;SDS011;24368;52.156;20.788;2023-08-01T18:11:58;5.50;;;3.40;;
38611;SDS011;24368;52.156;20.788;2023-08-01T18:16:59;3.50;;;2.90;;
38611;SDS011;24368;52.156;20.788;2023-08-01T18:22:00;3.00;;;2.80;;
38611;SDS011;24368;52.156;20.788;2023-08-01T18:27:01;3.90;;;2.80;;
38611;SDS011;24368;52.156;20.788;2023-08-01T18:32:03;2.70;;;2.50;;
38611;SDS011;24368;52.156;20.788;2023-08-01T18:37:04;3.60;;;3.00;;
38611;SDS011;24368;52.156;20.788;2023-08-01T18:42:06;2.90;;;2.70;;
38611;SDS011;24368;52.156;20.788;2023-08-01T18:47:07;4.10;;;3.30;;
38611;SDS011;24368;52.156;20.788;2023-08-01T18:52:08;3.60;;;3.20;;
38611;SDS011;24368;52.156;20.788;2023-08-01T18:57:10;2.70;;;2.50;;
38611;SDS011;24368;52.156;20.788;2023-08-01T19:02:11;3.20;;;2.90;;
38611;SDS011;24368;52.156;20.788;2023-08-01T19:07:12;3.40;;;3.10;;
38611;SDS011;24368;52.156;20.788;2023-08-01T19:12:13;4.10;;;3.60;;
38611;SDS011;24368;52.156;20.788;2023-08-01T19:17:15;4.80;;;3.60;;
38611;SDS011;24368;52.156;20.788;2023-08-01T19:22:16;3.60;;;3.30;;
38611;SDS011;24368;52.156;20.788;2023-08-01T19:27:17;4.10;;;2.90;;
38611;SDS011;24368;52.156;20.788;2023-08-01T19:32:18;4.10;;;3.20;;
38611;SDS011;24368;52.156;20.788;2023-08-01T19:37:20;3.20;;;3.00;;
38611;SDS011;24368;52.156;20.788;2023-08-01T19:42:22;3.50;;;2.80;;
38611;SDS011;24368;52.156;20.788;2023-08-01T19:47:24;5.40;;;4.90;;
38611;SDS011;24368;52.156;20.788;2023-08-01T19:52:25;4.10;;;3.70;;
38611;SDS011;24368;52.156;20.788;2023-08-01T19:57:26;4.00;;;3.70;;
38611;SDS011;24368;52.156;20.788;2023-08-01T20:02:27;2.90;;;2.70;;
38611;SDS011;24368;52.156;20.788;2023-08-01T20:07:29;5.20;;;4.80;;
38611;SDS011;24368;52.156;20.788;2023-08-01T20:12:30;3.40;;;3.10;;
38611;SDS011;24368;52.156;20.788;2023-08-01T20:17:31;2.80;;;2.60;;
38611;SDS011;24368;52.156;20.788;2023-08-01T20:22:33;3.40;;;2.80;;
38611;SDS011;24368;52.156;20.788;2023-08-01T20:27:34;3.00;;;2.80;;
38611;SDS011;24368;52.156;20.788;2023-08-01T20:32:36;4.90;;;2.90;;
38611;SDS011;24368;52.156;20.788;2023-08-01T20:37:38;4.00;;;3.50;;
38611;SDS011;24368;52.156;20.788;2023-08-01T20:42:39;4.70;;;3.80;;
38611;SDS011;24368;52.156;20.788;2023-08-01T20:47:40;5.10;;;3.90;;
38611;SDS011;24368;52.156;20.788;2023-08-01T20:52:41;4.80;;;4.00;;
38611;SDS011;24368;52.156;20.788;2023-08-01T20:57:43;3.90;;;3.60;;
38611;SDS011;24368;52.156;20.788;2023-08-01T21:02:44;3.60;;;3.30;;
38611;SDS011;24368;52.156;20.788;2023-08-01T21:07:52;3.30;;;3.00;;
38611;SDS011;24368;52.156;20.788;2023-08-01T21:12:54;3.60;;;3.30;;
38611;SDS011;24368;52.156;20.788;2023-08-01T21:17:55;4.40;;;3.00;;
38611;SDS011;24368;52.156;20.788;2023-08-01T21:22:56;3.90;;;3.20;;
38611;SDS011;24368;52.156;20.788;2023-08-01T21:27:57;3.70;;;3.40;;
38611;SDS011;24368;52.156;20.788;2023-08-01T21:32:59;5.10;;;3.00;;
38611;SDS011;24368;52.156;20.788;2023-08-01T21:38:00;4.50;;;4.10;;
38611;SDS011;24368;52.156;20.788;2023-08-01T21:43:01;4.00;;;3.50;;
38611;SDS011;24368;52.156;20.788;2023-08-01T21:48:03;4.10;;;3.30;;
38611;SDS011;24368;52.156;20.788;2023-08-01T21:53:04;4.30;;;3.10;;
38611;SDS011;24368;52.156;20.788;2023-08-01T21:58:05;3.80;;;3.40;;
38611;SDS011;24368;52.156;20.788;2023-08-01T22:03:07;4.90;;;3.10;;
38611;SDS011;24368;52.156;20.788;2023-08-01T22:08:08;4.10;;;3.60;;
38611;SDS011;24368;52.156;20.788;2023-08-01T22:13:09;3.60;;;3.30;;
38611;SDS011;24368;52.156;20.788;2023-08-01T22:18:10;3.80;;;3.50;;
38611;SDS011;24368;52.156;20.788;2023-08-01T22:23:21;3.50;;;3.20;;
38611;SDS011;24368;52.156;20.788;2023-08-01T22:28:23;5.00;;;3.20;;
38611;SDS011;24368;52.156;20.788;2023-08-01T22:33:24;3.90;;;3.20;;
38611;SDS011;24368;52.156;20.788;2023-08-01T22:38:25;3.70;;;3.40;;
38611;SDS011;24368;52.156;20.788;2023-08-01T22:43:26;3.50;;;3.20;;
38611;SDS011;24368;52.156;20.788;2023-08-01T22:48:27;3.80;;;3.40;;
38611;SDS011;24368;52.156;20.788;2023-08-01T22:53:29;3.80;;;3.40;;
38611;SDS011;24368;52.156;20.788;2023-08-01T22:58:30;3.10;;;2.80;;
38611;SDS011;24368;52.156;20.788;2023-08-01T23:03:31;5.20;;;3.60;;
38611;SDS011;24368;52.156;20.788;2023-08-01T23:08:32;3.50;;;3.20;;
38611;SDS011;24368;52.156;20.788;2023-08-01T23:13:33;3.80;;;3.30;;
38611;SDS011;24368;52.156;20.788;2023-08-01T23:18:34;3.40;;;3.10;;
38611;SDS011;24368;52.156;20.788;2023-08-01T23:23:35;3.90;;;3.60;;
38611;SDS011;24368;52.156;20.788;2023-08-01T23:28:37;4.50;;;3.20;;
38611;SDS011;24368;52.156;20.788;2023-08-01T23:33:38;4.10;;;3.50;;
38611;SDS011;24368;52.156;20.788;2023-08-01T23:38:40;3.60;;;3.30;;
38611;SDS011;24368;52.156;20.788;2023-08-01T23:43:41;3.80;;;3.40;;
38611;SDS011;24368;52.156;20.788;2023-08-01T23:48:42;4.10;;;3.60;;
38611;SDS011;24368;52.156;20.788;2023-08-01T23:53:43;3.30;;;3.00;;
38611;SDS011;24368;52.156;20.788;2023-08-01T23:58:45;3.60;;;3.30;;
